createdAt,value
2018-08-19T00:57:08.959Z,17.10
2018-08-19T00:59:38.430Z,17.10
2018-08-19T01:02:07.120Z,17.10
2018-08-19T01:04:35.962Z,17.20
2018-08-19T01:07:04.506Z,17.20
2018-08-19T01:09:33.058Z,17.10
2018-08-19T01:12:01.549Z,17.10
2018-08-19T01:14:31.551Z,17.10
2018-08-19T01:17:00.210Z,17.10
2018-08-19T01:19:29.048Z,17.10
2018-08-19T01:21:57.980Z,17.00
2018-08-19T01:24:26.526Z,17.00
2018-08-19T01:26:56.505Z,17.00
2018-08-19T01:29:35.979Z,17.00
2018-08-19T01:32:13.684Z,17.00
2018-08-19T01:34:45.804Z,16.90
2018-08-19T01:37:15.564Z,16.90
2018-08-19T01:39:44.379Z,16.90
2018-08-19T01:42:12.847Z,16.80
2018-08-19T01:44:42.682Z,16.80
2018-08-19T01:47:11.596Z,16.80
2018-08-19T01:49:40.049Z,16.70
2018-08-19T01:52:08.800Z,16.60
2018-08-19T01:54:37.474Z,16.60
2018-08-19T01:57:06.131Z,16.60
2018-08-19T01:59:35.779Z,16.50
2018-08-19T02:02:06.747Z,16.50
2018-08-19T02:04:41.186Z,16.50
2018-08-19T02:07:10.561Z,16.50
2018-08-19T02:09:53.284Z,16.50
2018-08-19T02:12:22.212Z,16.50
2018-08-19T02:14:51.224Z,16.40
2018-08-19T02:17:19.861Z,16.40
2018-08-19T02:19:48.528Z,16.50
2018-08-19T02:22:17.210Z,16.40
2018-08-19T02:24:46.421Z,16.40
2018-08-19T02:27:15.035Z,16.40
2018-08-19T02:29:43.542Z,16.40
2018-08-19T02:32:12.048Z,16.30
2018-08-19T02:34:43.356Z,16.30
2018-08-19T02:37:14.152Z,16.30
2018-08-19T02:39:44.574Z,16.20
2018-08-19T02:42:26.420Z,16.20
2018-08-19T02:45:07.131Z,16.20
2018-08-19T02:47:36.761Z,16.20
2018-08-19T02:50:06.568Z,16.20
2018-08-19T02:52:37.211Z,16.20
2018-08-19T02:55:07.546Z,16.20
2018-08-19T02:57:39.147Z,16.20
2018-08-19T03:00:10.410Z,16.10
2018-08-19T03:02:40.213Z,16.10
2018-08-19T03:05:14.597Z,16.10
2018-08-19T03:07:43.685Z,16.10
2018-08-19T03:10:13.444Z,16.00
2018-08-19T03:12:43.748Z,16.00
2018-08-19T03:15:14.550Z,16.00
2018-08-19T03:17:46.457Z,16.00
2018-08-19T03:20:14.888Z,16.00
2018-08-19T03:22:44.156Z,16.00
2018-08-19T03:25:14.097Z,16.00
2018-08-19T03:27:42.489Z,15.90
2018-08-19T03:30:12.520Z,15.90
2018-08-19T03:32:46.943Z,15.90
2018-08-19T03:35:16.566Z,15.90
2018-08-19T03:37:45.385Z,15.80
2018-08-19T03:40:14.233Z,15.80
2018-08-19T03:42:43.020Z,15.80
2018-08-19T03:45:17.400Z,15.70
2018-08-19T03:47:46.617Z,15.70
2018-08-19T03:50:20.942Z,15.70
2018-08-19T03:52:50.496Z,15.70
2018-08-19T03:55:24.534Z,15.70
2018-08-19T03:57:55.141Z,15.60
2018-08-19T04:00:23.631Z,15.70
2018-08-19T04:02:52.027Z,15.70
2018-08-19T04:05:29.399Z,15.60
2018-08-19T04:07:58.592Z,15.60
2018-08-19T04:10:27.416Z,15.60
2018-08-19T04:12:55.846Z,15.60
2018-08-19T04:15:25.051Z,15.60
2018-08-19T04:17:53.755Z,15.50
2018-08-19T04:20:22.131Z,15.50
2018-08-19T04:22:50.721Z,15.50
2018-08-19T04:25:23.780Z,15.50
2018-08-19T04:27:52.198Z,15.50
2018-08-19T04:30:20.570Z,15.50
2018-08-19T04:32:49.429Z,15.60
2018-08-19T04:35:18.416Z,15.60
2018-08-19T04:37:47.517Z,15.60
2018-08-19T04:40:15.964Z,15.60
2018-08-19T04:42:44.404Z,15.60
2018-08-19T04:45:12.890Z,15.60
2018-08-19T04:47:41.287Z,15.70
2018-08-19T04:50:09.771Z,15.70
2018-08-19T04:52:38.158Z,15.70
2018-08-19T04:55:07.021Z,15.70
2018-08-19T04:57:35.420Z,15.70
2018-08-19T05:00:03.987Z,15.80
2018-08-19T05:02:32.454Z,15.90
2018-08-19T05:05:01.598Z,15.90
2018-08-19T05:07:30.036Z,15.90
2018-08-19T05:09:59.054Z,16.00
2018-08-19T05:12:27.475Z,16.00
2018-08-19T05:14:56.033Z,16.10
2018-08-19T05:17:25.664Z,16.20
2018-08-19T05:20:03.271Z,16.20
2018-08-19T05:22:35.354Z,16.30
2018-08-19T05:25:04.614Z,16.40
2018-08-19T05:27:33.268Z,16.40
2018-08-19T05:30:01.706Z,16.50
2018-08-19T05:32:30.146Z,16.60
2018-08-19T05:34:58.697Z,16.70
2018-08-19T05:37:28.245Z,16.80
2018-08-19T05:39:59.814Z,16.90
2018-08-19T05:42:28.448Z,17.00
2018-08-19T05:44:57.395Z,17.10
2018-08-19T05:47:26.015Z,17.20
2018-08-19T05:49:55.151Z,17.30
2018-08-19T05:52:24.470Z,17.40
2018-08-19T05:54:57.069Z,17.50
2018-08-19T05:57:26.145Z,17.60
2018-08-19T05:59:55.100Z,17.70
2018-08-19T06:02:32.352Z,17.80
2018-08-19T06:05:02.249Z,17.90
2018-08-19T06:07:31.354Z,18.00
2018-08-19T06:09:59.979Z,18.20
2018-08-19T06:12:28.530Z,18.80
2018-08-19T06:14:59.724Z,19.80
2018-08-19T06:17:28.598Z,21.30
2018-08-19T06:19:57.180Z,22.60
2018-08-19T06:22:31.135Z,23.70
2018-08-19T06:25:00.006Z,24.40
2018-08-19T06:27:35.157Z,25.40
2018-08-19T06:30:04.103Z,26.40
2018-08-19T06:32:33.737Z,26.60
2018-08-19T06:35:02.353Z,27.40
2018-08-19T06:37:30.809Z,28.00
2018-08-19T06:40:00.695Z,28.00
2018-08-19T06:42:29.072Z,27.80
2018-08-19T06:44:58.594Z,28.00
2018-08-19T06:47:28.038Z,28.60
2018-08-19T06:49:58.223Z,28.70
2018-08-19T06:52:27.141Z,29.40
2018-08-19T06:54:56.496Z,29.60
2018-08-19T06:57:28.520Z,30.20
2018-08-19T06:59:57.247Z,30.90
2018-08-19T07:02:26.124Z,31.20
2018-08-19T07:04:57.614Z,32.00
2018-08-19T07:07:26.050Z,32.00
2018-08-19T07:09:54.996Z,31.70
2018-08-19T07:12:23.949Z,31.60
2018-08-19T07:14:52.655Z,31.90
2018-08-19T07:17:22.041Z,32.20
2018-08-19T07:19:50.441Z,32.10
2018-08-19T07:22:20.278Z,32.50
2018-08-19T07:24:48.889Z,32.60
2018-08-19T07:27:17.709Z,32.60
2018-08-19T07:29:46.203Z,33.10
2018-08-19T07:32:15.122Z,33.40
2018-08-19T07:34:43.933Z,33.30
2018-08-19T07:37:12.424Z,33.10
2018-08-19T07:39:47.136Z,33.30
2018-08-19T07:42:15.759Z,33.90
2018-08-19T07:44:44.356Z,34.20
2018-08-19T07:47:12.821Z,34.70
2018-08-19T07:49:41.218Z,34.60
2018-08-19T07:52:09.900Z,34.60
2018-08-19T07:54:38.640Z,34.50
2018-08-19T07:57:16.242Z,34.80
2018-08-19T07:59:47.448Z,34.60
2018-08-19T08:02:16.203Z,35.20
2018-08-19T08:04:45.365Z,34.90
2018-08-19T08:07:14.791Z,34.90
2018-08-19T08:09:43.494Z,34.40
2018-08-19T08:12:13.837Z,34.30
2018-08-19T08:14:49.748Z,33.80
2018-08-19T08:17:18.567Z,33.90
2018-08-19T08:19:52.437Z,34.20
2018-08-19T08:22:21.863Z,34.70
2018-08-19T08:24:50.542Z,35.00
2018-08-19T08:27:18.972Z,35.30
2018-08-19T08:29:48.365Z,35.00
2018-08-19T08:32:16.798Z,35.40
2018-08-19T08:34:46.142Z,34.80
2018-08-19T08:37:14.988Z,34.40
2018-08-19T08:39:43.431Z,34.50
2018-08-19T08:42:12.097Z,34.80
2018-08-19T08:44:40.691Z,34.20
2018-08-19T08:47:11.594Z,34.40
2018-08-19T08:49:45.280Z,34.30
2018-08-19T08:52:19.448Z,34.00
2018-08-19T08:54:54.600Z,34.30
2018-08-19T08:57:25.380Z,34.60
2018-08-19T08:59:54.260Z,34.30
2018-08-19T09:02:23.664Z,35.00
2018-08-19T09:04:53.338Z,35.30
2018-08-19T09:07:21.865Z,35.40
2018-08-19T09:09:50.827Z,35.10
2018-08-19T09:12:31.017Z,35.80
2018-08-19T09:14:59.578Z,36.00
2018-08-19T09:17:28.173Z,36.00
2018-08-19T09:19:56.680Z,35.70
2018-08-19T09:22:25.763Z,35.20
2018-08-19T09:24:54.424Z,35.30
2018-08-19T09:27:23.388Z,35.20
2018-08-19T09:29:52.072Z,35.40
2018-08-19T09:32:21.232Z,35.90
2018-08-19T09:34:49.987Z,35.90
2018-08-19T09:37:18.592Z,35.80
2018-08-19T09:39:47.780Z,36.00
2018-08-19T09:42:16.544Z,36.00
2018-08-19T09:44:45.809Z,35.90
2018-08-19T09:47:14.288Z,36.30
2018-08-19T09:49:43.268Z,37.30
2018-08-19T09:52:12.055Z,36.80
2018-08-19T09:54:40.947Z,36.50
2018-08-19T09:57:09.629Z,36.60
2018-08-19T09:59:38.190Z,36.60
2018-08-19T10:02:09.461Z,36.50
2018-08-19T10:04:37.950Z,36.50
2018-08-19T10:07:10.929Z,36.70
2018-08-19T10:09:40.081Z,36.70
2018-08-19T10:12:09.440Z,37.60
2018-08-19T10:14:38.039Z,38.20
2018-08-19T10:17:06.945Z,38.20
2018-08-19T10:19:35.444Z,37.80
2018-08-19T10:22:04.304Z,36.70
2018-08-19T10:24:33.768Z,36.70
2018-08-19T10:27:05.733Z,37.30
2018-08-19T10:29:34.130Z,37.20
2018-08-19T10:32:03.614Z,35.90
2018-08-19T10:34:34.884Z,36.40
2018-08-19T10:37:04.036Z,36.70
2018-08-19T10:39:34.123Z,36.60
2018-08-19T10:42:16.877Z,36.60
2018-08-19T10:44:47.051Z,36.50
2018-08-19T10:47:16.195Z,36.50
2018-08-19T10:49:52.474Z,36.30
2018-08-19T10:52:25.945Z,35.80
2018-08-19T10:54:55.686Z,35.80
2018-08-19T10:57:24.269Z,36.00
2018-08-19T10:59:55.384Z,35.60
2018-08-19T11:02:24.194Z,35.40
2018-08-19T11:04:56.101Z,35.10
2018-08-19T11:07:24.728Z,34.70
2018-08-19T11:10:10.238Z,34.90
2018-08-19T11:12:38.892Z,34.80
2018-08-19T11:16:11.505Z,34.80
2018-08-19T11:18:43.328Z,34.50
2018-08-19T11:21:20.548Z,34.10
2018-08-19T11:23:49.105Z,33.50
2018-08-19T11:26:17.950Z,32.90
2018-08-19T11:28:48.980Z,32.00
2018-08-19T11:31:25.477Z,32.50
2018-08-19T11:33:58.174Z,32.70
2018-08-19T11:36:32.958Z,32.90
2018-08-19T11:39:02.780Z,33.00
2018-08-19T11:41:33.294Z,33.20
2018-08-19T11:44:07.076Z,33.00
2018-08-19T11:46:35.831Z,33.00
2018-08-19T11:49:17.875Z,33.20
2018-08-19T11:51:51.125Z,33.20
2018-08-19T11:54:21.385Z,33.40
2018-08-19T11:57:00.113Z,33.30
2018-08-19T11:59:34.167Z,33.20
2018-08-19T12:02:02.741Z,32.70
2018-08-19T12:04:32.101Z,32.90
2018-08-19T12:07:00.945Z,33.00
2018-08-19T12:09:29.386Z,33.30
2018-08-19T12:11:59.103Z,33.50
2018-08-19T12:14:27.766Z,33.40
2018-08-19T12:16:58.085Z,33.50
2018-08-19T12:19:27.861Z,33.70
2018-08-19T12:21:58.712Z,33.60
2018-08-19T12:24:32.097Z,33.20
2018-08-19T12:27:02.143Z,33.20
2018-08-19T12:29:31.931Z,33.10
2018-08-19T12:32:09.941Z,33.20
2018-08-19T12:34:46.804Z,33.20
2018-08-19T12:37:17.155Z,33.10
2018-08-19T12:39:46.129Z,32.80
2018-08-19T12:42:14.924Z,33.10
2018-08-19T12:44:44.654Z,33.00
2018-08-19T12:47:15.971Z,32.60
2018-08-19T12:49:46.133Z,32.40
2018-08-19T12:52:16.811Z,32.50
2018-08-19T12:54:47.164Z,32.40
2018-08-19T12:57:15.748Z,32.50
2018-08-19T12:59:45.345Z,32.50
2018-08-19T13:02:13.793Z,32.20
2018-08-19T13:04:42.574Z,32.10
2018-08-19T13:07:12.848Z,32.20
2018-08-19T13:09:41.815Z,32.30
2018-08-19T13:12:11.788Z,32.20
2018-08-19T13:14:40.655Z,32.20
2018-08-19T13:17:10.636Z,32.20
2018-08-19T13:19:40.240Z,32.30
2018-08-19T13:22:08.669Z,32.20
2018-08-19T13:24:39.092Z,32.00
2018-08-19T13:27:09.816Z,32.00
2018-08-19T13:29:38.705Z,32.20
2018-08-19T13:32:07.119Z,32.20
2018-08-19T13:34:35.852Z,32.50
2018-08-19T13:37:04.795Z,32.60
2018-08-19T13:39:34.087Z,32.70
2018-08-19T13:42:02.518Z,32.80
2018-08-19T13:44:30.961Z,32.40
2018-08-19T13:46:59.730Z,32.30
2018-08-19T13:49:29.092Z,32.10
2018-08-19T13:52:01.601Z,32.20
2018-08-19T13:54:31.224Z,32.30
2018-08-19T13:56:59.635Z,32.40
2018-08-19T13:59:28.973Z,32.50
2018-08-19T14:01:57.605Z,32.50
2018-08-19T14:04:26.081Z,32.50
2018-08-19T14:06:54.619Z,32.60
2018-08-19T14:09:23.527Z,32.50
2018-08-19T14:11:51.947Z,32.30
2018-08-19T14:14:20.560Z,32.40
2018-08-19T14:16:49.321Z,32.40
2018-08-19T14:19:19.484Z,32.30
2018-08-19T14:21:48.029Z,32.20
2018-08-19T14:24:17.015Z,32.20
2018-08-19T14:26:46.079Z,32.20
2018-08-19T14:29:14.801Z,32.50
2018-08-19T14:31:44.263Z,32.40
2018-08-19T14:34:12.733Z,32.40
2018-08-19T14:36:41.577Z,32.10
2018-08-19T14:39:10.192Z,32.10
2018-08-19T14:41:38.776Z,32.10
2018-08-19T14:44:07.881Z,31.60
2018-08-19T14:46:36.320Z,31.60
2018-08-19T14:49:06.028Z,31.40
2018-08-19T14:51:55.936Z,31.30
2018-08-19T14:54:24.540Z,31.20
2018-08-19T14:56:53.311Z,31.20
2018-08-19T14:59:21.766Z,30.90
2018-08-19T15:01:50.583Z,31.00
2018-08-19T15:04:19.921Z,31.20
2018-08-19T15:06:48.853Z,31.20
2018-08-19T15:09:24.154Z,31.20
2018-08-19T15:11:53.940Z,30.90
2018-08-19T15:14:22.589Z,30.90
2018-08-19T15:16:52.935Z,30.90
2018-08-19T15:19:22.044Z,30.90
2018-08-19T15:21:55.552Z,30.90
2018-08-19T15:24:24.701Z,30.90
2018-08-19T15:26:53.101Z,30.90
2018-08-19T15:29:28.854Z,30.90
2018-08-19T15:31:58.644Z,30.80
2018-08-19T15:34:26.986Z,30.70
2018-08-19T15:36:55.810Z,30.60
2018-08-19T15:39:24.557Z,30.50
2018-08-19T15:41:53.106Z,30.60
2018-08-19T15:44:21.669Z,30.60
2018-08-19T15:46:50.143Z,30.60
2018-08-19T15:49:21.232Z,30.60
2018-08-19T15:51:50.534Z,30.40
2018-08-19T15:54:19.398Z,30.40
2018-08-19T15:56:48.293Z,30.40
2018-08-19T15:59:16.720Z,30.20
2018-08-19T16:01:45.656Z,30.10
2018-08-19T16:04:17.403Z,30.00
2018-08-19T16:06:51.580Z,30.00
2018-08-19T16:09:21.362Z,29.90
2018-08-19T16:11:50.929Z,29.70
2018-08-19T16:14:27.299Z,29.70
2018-08-19T16:16:57.272Z,29.60
2018-08-19T16:19:26.677Z,29.50
2018-08-19T16:21:56.519Z,29.50
2018-08-19T16:24:25.551Z,29.50
2018-08-19T16:26:54.280Z,29.20
2018-08-19T16:29:22.928Z,29.20
2018-08-19T16:31:51.778Z,29.20
2018-08-19T16:34:20.679Z,29.10
2018-08-19T16:36:49.924Z,28.90
2018-08-19T16:39:19.315Z,28.90
2018-08-19T16:41:48.594Z,28.70
2018-08-19T16:44:17.774Z,28.70
2018-08-19T16:46:46.302Z,28.70
2018-08-19T16:49:14.935Z,28.70
2018-08-19T16:51:43.857Z,28.50
2018-08-19T16:54:12.333Z,28.40
2018-08-19T16:56:40.858Z,28.40
2018-08-19T16:59:09.444Z,28.30
2018-08-19T17:01:38.372Z,28.30
2018-08-19T17:04:06.778Z,28.20
2018-08-19T17:06:38.077Z,28.10
2018-08-19T17:09:08.354Z,28.10
2018-08-19T17:11:36.761Z,28.10
2018-08-19T17:14:05.661Z,28.00
2018-08-19T17:16:34.411Z,28.00
2018-08-19T17:19:03.071Z,28.00
2018-08-19T17:21:31.816Z,27.90
2018-08-19T17:24:00.876Z,27.80
2018-08-19T17:26:29.628Z,27.70
2018-08-19T17:29:04.387Z,27.70
2018-08-19T17:31:32.973Z,27.60
2018-08-19T17:34:01.413Z,27.50
2018-08-19T17:36:34.986Z,27.40
2018-08-19T17:39:03.787Z,27.40
2018-08-19T17:41:32.226Z,27.20
2018-08-19T17:44:03.805Z,27.10
2018-08-19T17:46:32.398Z,27.00
2018-08-19T17:49:00.869Z,26.90
2018-08-19T17:51:32.090Z,26.80
2018-08-19T17:54:00.739Z,26.70
2018-08-19T17:56:29.298Z,26.60
2018-08-19T17:58:57.784Z,26.50
2018-08-19T18:01:26.949Z,26.40
2018-08-19T18:03:55.428Z,26.30
2018-08-19T18:06:23.945Z,26.20
2018-08-19T18:08:53.376Z,26.10
2018-08-19T18:11:24.232Z,26.00
2018-08-19T18:13:53.001Z,25.90
2018-08-19T18:16:21.519Z,25.70
2018-08-19T18:18:50.169Z,25.60
2018-08-19T18:21:19.253Z,25.50
2018-08-19T18:23:49.013Z,25.40
2018-08-19T18:26:17.510Z,25.20
2018-08-19T18:28:47.880Z,25.10
2018-08-19T18:31:20.062Z,25.10
2018-08-19T18:33:54.855Z,24.90
2018-08-19T18:36:25.258Z,24.80
2018-08-19T18:38:53.944Z,24.70
2018-08-19T18:41:28.705Z,24.60
2018-08-19T18:43:58.733Z,24.50
2018-08-19T18:46:28.254Z,24.40
2018-08-19T18:49:13.349Z,24.30
2018-08-19T18:51:50.612Z,24.20
2018-08-19T18:54:25.876Z,24.10
2018-08-19T18:56:58.075Z,24.00
2018-08-19T18:59:26.569Z,23.80
2018-08-19T19:01:57.600Z,23.80
2018-08-19T19:04:26.536Z,23.70
2018-08-19T19:06:55.202Z,23.60
2018-08-19T19:09:23.814Z,23.50
2018-08-19T19:11:53.041Z,23.40
2018-08-19T19:14:22.241Z,23.30
2018-08-19T19:16:52.399Z,23.20
2018-08-19T19:19:20.976Z,23.20
2018-08-19T19:21:54.212Z,23.10
2018-08-19T19:24:26.902Z,23.00
2018-08-19T19:26:56.817Z,22.90
2018-08-19T19:29:28.847Z,22.90
2018-08-19T19:31:58.993Z,22.80
2018-08-19T19:34:31.117Z,22.80
2018-08-19T19:37:00.516Z,22.70
2018-08-19T19:39:29.752Z,22.60
2018-08-19T19:42:06.745Z,22.60
2018-08-19T19:44:35.792Z,22.50
2018-08-19T19:47:05.833Z,22.50
2018-08-19T19:49:37.410Z,22.40
2018-08-19T19:52:06.226Z,22.30
2018-08-19T19:54:34.822Z,22.20
2018-08-19T19:57:03.652Z,22.20
2018-08-19T19:59:34.209Z,22.10
2018-08-19T20:02:02.944Z,22.10
2018-08-19T20:04:34.251Z,22.00
2018-08-19T20:07:02.842Z,21.90
2018-08-19T20:09:34.599Z,21.90
2018-08-19T20:12:03.969Z,21.90
2018-08-19T20:14:37.302Z,21.80
2018-08-19T20:17:06.530Z,21.70
2018-08-19T20:19:35.429Z,21.70
2018-08-19T20:22:03.967Z,21.70
2018-08-19T20:24:32.383Z,21.60
2018-08-19T20:27:01.179Z,21.60
2018-08-19T20:29:29.631Z,21.50
2018-08-19T20:31:58.782Z,21.50
2018-08-19T20:34:27.207Z,21.40
2018-08-19T20:36:55.721Z,21.40
2018-08-19T20:39:24.406Z,21.40
2018-08-19T20:41:53.089Z,21.40
2018-08-19T20:44:21.495Z,21.30
2018-08-19T20:46:55.691Z,21.30
2018-08-19T20:49:24.964Z,21.30
2018-08-19T20:51:54.387Z,21.20
2018-08-19T20:54:23.507Z,21.10
2018-08-19T20:56:52.164Z,21.00
2018-08-19T20:59:26.005Z,21.00
2018-08-19T21:01:54.800Z,21.00
2018-08-19T21:04:23.217Z,20.90
2018-08-19T21:06:51.684Z,20.80
2018-08-19T21:09:20.251Z,20.80
2018-08-19T21:11:49.123Z,20.80
2018-08-19T21:14:17.555Z,20.70
2018-08-19T21:16:46.966Z,20.60
2018-08-19T21:19:15.442Z,20.60
2018-08-19T21:21:43.923Z,20.60
2018-08-19T21:24:12.949Z,20.50
2018-08-19T21:26:44.808Z,20.50
2018-08-19T21:29:13.725Z,20.50
2018-08-19T21:31:42.174Z,20.40
2018-08-19T21:34:10.933Z,20.40
2018-08-19T21:36:39.355Z,20.40
2018-08-19T21:39:08.651Z,20.40
2018-08-19T21:41:50.511Z,20.30
2018-08-19T21:44:20.516Z,20.20
2018-08-19T21:46:48.962Z,20.20
2018-08-19T21:49:17.403Z,20.20
2018-08-19T21:51:46.031Z,20.10
